Time,TemperatureF,DewpointF,PressureIn,WindDirection,WindDirectionDegrees,WindSpeedMPH,WindSpeedGustMPH,Humidity,HourlyPrecipIn,Conditions,Clouds,dailyrainin,SolarRadiationWatts/m^2,SoftwareType,DateUTC
2013-05-18 00:01:00,56.0,29.0,-100.00,SW,235,12.0,24.0,36,0.00,,,0.00,0.000000,,2013-05-18 07:01:00,
2013-05-18 00:11:00,56.0,29.0,-100.00,SW,235,12.0,24.0,36,0.00,,,0.00,0.000000,,2013-05-18 07:11:00,
2013-05-18 00:21:00,56.0,29.0,-100.00,SW,235,12.0,24.0,36,0.00,,,0.00,0.000000,,2013-05-18 07:21:00,
2013-05-18 00:52:00,58.0,29.0,-100.00,WSW,258,8.0,25.0,33,0.00,,,0.00,0.000000,,2013-05-18 07:52:00,
2013-05-18 01:01:00,58.0,29.0,-100.00,WSW,258,8.0,25.0,33,0.00,,,0.00,0.000000,,2013-05-18 08:01:00,
2013-05-18 01:11:00,58.0,29.0,-100.00,WSW,258,8.0,25.0,33,0.00,,,0.00,0.000000,,2013-05-18 08:11:00,
2013-05-18 01:21:00,58.0,29.0,-100.00,WSW,258,8.0,25.0,33,0.00,,,0.00,0.000000,,2013-05-18 08:21:00,
2013-05-18 01:52:00,57.0,27.0,-100.00,WNW,302,13.0,23.0,32,0.00,,,0.00,0.000000,,2013-05-18 08:52:00,
2013-05-18 02:02:00,57.0,27.0,-100.00,WNW,302,13.0,23.0,32,0.00,,,0.00,0.000000,,2013-05-18 09:02:00,
2013-05-18 02:11:00,57.0,27.0,-100.00,WNW,302,13.0,23.0,32,0.00,,,0.00,0.000000,,2013-05-18 09:11:00,
2013-05-18 02:22:00,57.0,27.0,-100.00,WNW,302,13.0,23.0,32,0.00,,,0.00,0.000000,,2013-05-18 09:22:00,
2013-05-18 02:53:00,57.0,28.0,-100.00,NNW,346,6.0,22.0,33,0.00,,,0.00,0.000000,,2013-05-18 09:53:00,
2013-05-18 03:02:00,57.0,28.0,-100.00,NNW,346,6.0,22.0,33,0.00,,,0.00,0.000000,,2013-05-18 10:02:00,
2013-05-18 03:12:00,57.0,28.0,-100.00,NNW,346,6.0,22.0,33,0.00,,,0.00,0.000000,,2013-05-18 10:12:00,
2013-05-18 03:22:00,57.0,28.0,-100.00,NNW,346,6.0,22.0,33,0.00,,,0.00,0.000000,,2013-05-18 10:22:00,
2013-05-18 03:52:00,57.0,28.0,-100.00,NW,304,12.0,20.0,33,0.00,,,0.00,0.000000,,2013-05-18 10:52:00,
2013-05-18 04:02:00,57.0,28.0,-100.00,NW,304,12.0,20.0,33,0.00,,,0.00,0.000000,,2013-05-18 11:02:00,
2013-05-18 04:12:00,57.0,28.0,-100.00,NW,304,12.0,20.0,33,0.00,,,0.00,0.000000,,2013-05-18 11:12:00,
2013-05-18 04:22:00,57.0,28.0,-100.00,NW,304,12.0,20.0,33,0.00,,,0.00,0.000000,,2013-05-18 11:22:00,
2013-05-18 04:52:00,55.0,26.0,-100.00,NW,307,16.0,24.0,32,0.00,,,0.00,0.000000,,2013-05-18 11:52:00,
2013-05-18 05:01:00,55.0,26.0,-100.00,NW,307,16.0,24.0,32,0.00,,,0.00,0.000000,,2013-05-18 12:01:00,
2013-05-18 05:12:00,55.0,26.0,-100.00,NW,307,16.0,24.0,32,0.00,,,0.00,0.000000,,2013-05-18 12:12:00,
2013-05-18 05:23:00,55.0,26.0,-100.00,NW,307,16.0,24.0,32,0.00,,,0.00,0.000000,,2013-05-18 12:23:00,
2013-05-18 05:52:00,55.0,26.0,-100.00,NW,304,14.0,23.0,32,0.00,,,0.00,0.000000,,2013-05-18 12:52:00,
2013-05-18 06:01:00,55.0,26.0,-100.00,NW,304,14.0,23.0,32,0.00,,,0.00,0.000000,,2013-05-18 13:01:00,
2013-05-18 06:11:00,55.0,26.0,-100.00,NW,304,14.0,23.0,32,0.00,,,0.00,0.000000,,2013-05-18 13:11:00,
2013-05-18 06:21:00,55.0,26.0,-100.00,NW,304,14.0,23.0,32,0.00,,,0.00,0.000000,,2013-05-18 13:21:00,
2013-05-18 06:52:00,56.0,25.0,-100.00,NE,46,7.0,20.0,30,0.00,,,0.00,24.000000,,2013-05-18 13:52:00,
2013-05-18 07:03:00,56.0,25.0,-100.00,NE,46,7.0,20.0,30,0.00,,,0.00,24.000000,,2013-05-18 14:03:00,
2013-05-18 07:12:00,56.0,25.0,-100.00,NE,46,7.0,20.0,30,0.00,,,0.00,24.000000,,2013-05-18 14:12:00,
2013-05-18 07:22:00,56.0,25.0,-100.00,NE,46,7.0,20.0,30,0.00,,,0.00,24.000000,,2013-05-18 14:22:00,
2013-05-18 07:54:00,60.0,24.0,-100.00,NW,312,11.0,17.0,25,0.00,,,0.00,207.000000,,2013-05-18 14:54:00,
2013-05-18 08:03:00,60.0,24.0,-100.00,NW,312,11.0,17.0,25,0.00,,,0.00,207.000000,,2013-05-18 15:03:00,
2013-05-18 08:13:00,60.0,24.0,-100.00,NW,312,11.0,17.0,25,0.00,,,0.00,207.000000,,2013-05-18 15:13:00,
2013-05-18 08:23:00,60.0,24.0,-100.00,NW,312,11.0,17.0,25,0.00,,,0.00,207.000000,,2013-05-18 15:23:00,
2013-05-18 08:53:00,64.0,23.0,-100.00,NNW,329,10.0,19.0,21,0.00,,,0.00,454.000000,,2013-05-18 15:53:00,
2013-05-18 09:02:00,64.0,23.0,-100.00,NNW,329,10.0,19.0,21,0.00,,,0.00,454.000000,,2013-05-18 16:02:00,
2013-05-18 09:12:00,64.0,23.0,-100.00,NNW,329,10.0,19.0,21,0.00,,,0.00,454.000000,,2013-05-18 16:12:00,
2013-05-18 09:22:00,64.0,23.0,-100.00,NNW,329,10.0,19.0,21,0.00,,,0.00,454.000000,,2013-05-18 16:22:00,
2013-05-18 09:52:00,69.0,18.0,-100.00,NNW,338,10.0,18.0,14,0.00,,,0.00,707.000000,,2013-05-18 16:52:00,
2013-05-18 10:02:00,69.0,18.0,-100.00,NNW,338,10.0,18.0,14,0.00,,,0.00,707.000000,,2013-05-18 17:02:00,
2013-05-18 10:52:00,70.0,17.0,-100.00,NNW,344,7.0,15.0,13,0.00,,,0.00,931.000000,,2013-05-18 17:52:00,
2013-05-18 11:01:00,70.0,17.0,-100.00,NNW,344,7.0,15.0,13,0.00,,,0.00,931.000000,,2013-05-18 18:01:00,
2013-05-18 11:12:00,70.0,17.0,-100.00,NNW,344,7.0,15.0,13,0.00,,,0.00,931.000000,,2013-05-18 18:12:00,
2013-05-18 11:52:00,75.0,19.0,-100.00,NNW,348,5.0,14.0,12,0.00,,,0.00,1107.000000,,2013-05-18 18:52:00,
2013-05-18 12:02:00,75.0,19.0,-100.00,NNW,348,5.0,14.0,12,0.00,,,0.00,1107.000000,,2013-05-18 19:02:00,
2013-05-18 12:11:00,75.0,19.0,-100.00,NNW,348,5.0,14.0,12,0.00,,,0.00,1107.000000,,2013-05-18 19:11:00,
2013-05-18 12:22:00,75.0,19.0,-100.00,NNW,348,5.0,14.0,12,0.00,,,0.00,1107.000000,,2013-05-18 19:22:00,
2013-05-18 12:52:00,73.0,15.0,-100.00,SW,218,9.0,24.0,11,0.00,,,0.00,1215.000000,,2013-05-18 19:52:00,
2013-05-18 13:01:00,73.0,15.0,-100.00,SW,218,9.0,24.0,11,0.00,,,0.00,1215.000000,,2013-05-18 20:01:00,
2013-05-18 13:52:00,76.0,13.0,-100.00,SSW,205,12.0,20.0,9,0.00,,,0.00,1240.000000,,2013-05-18 20:52:00,
2013-05-18 14:01:00,76.0,13.0,-100.00,SSW,205,12.0,20.0,9,0.00,,,0.00,1240.000000,,2013-05-18 21:01:00,
2013-05-18 14:53:00,77.0,11.0,-100.00,South,185,13.0,22.0,8,0.00,,,0.00,1207.000000,,2013-05-18 21:53:00,
2013-05-18 15:03:00,77.0,11.0,-100.00,South,185,13.0,22.0,8,0.00,,,0.00,1207.000000,,2013-05-18 22:03:00,
2013-05-18 15:52:00,77.0,14.0,-100.00,SW,218,12.0,22.0,9,0.00,,,0.00,1091.000000,,2013-05-18 22:52:00,
2013-05-18 16:01:00,77.0,14.0,-100.00,SW,218,12.0,22.0,9,0.00,,,0.00,1091.000000,,2013-05-18 23:01:00,
2013-05-18 16:11:00,77.0,14.0,-100.00,SW,218,12.0,22.0,9,0.00,,,0.00,1091.000000,,2013-05-18 23:11:00,
2013-05-18 16:21:00,77.0,14.0,-100.00,SW,218,12.0,22.0,9,0.00,,,0.00,1091.000000,,2013-05-18 23:21:00,
2013-05-18 16:53:00,76.0,13.0,-100.00,SW,225,10.0,27.0,9,0.00,,,0.00,901.000000,,2013-05-18 23:53:00,
2013-05-18 17:01:00,76.0,13.0,-100.00,SW,225,10.0,27.0,9,0.00,,,0.00,901.000000,,2013-05-19 00:01:00,
2013-05-18 17:52:00,76.0,13.0,-100.00,WNW,285,8.0,26.0,9,0.00,,,0.00,681.000000,,2013-05-19 00:52:00,
2013-05-18 18:01:00,76.0,13.0,-100.00,WNW,285,8.0,26.0,9,0.00,,,0.00,681.000000,,2013-05-19 01:01:00,
2013-05-18 18:52:00,71.0,12.0,-100.00,ESE,116,11.0,24.0,10,0.00,,,0.00,425.000000,,2013-05-19 01:52:00,
2013-05-18 19:01:00,71.0,12.0,-100.00,ESE,116,11.0,24.0,10,0.00,,,0.00,425.000000,,2013-05-19 02:01:00,
2013-05-18 19:52:00,66.0,17.0,-100.00,West,270,12.0,24.0,15,0.00,,,0.00,81.000000,,2013-05-19 02:52:00,
2013-05-18 20:01:00,66.0,17.0,-100.00,West,270,12.0,24.0,15,0.00,,,0.00,81.000000,,2013-05-19 03:01:00,
2013-05-18 20:11:00,66.0,17.0,-100.00,West,270,12.0,24.0,15,0.00,,,0.00,81.000000,,2013-05-19 03:11:00,
2013-05-18 20:21:00,66.0,17.0,-100.00,West,270,12.0,24.0,15,0.00,,,0.00,81.000000,,2013-05-19 03:21:00,
2013-05-18 20:53:00,64.0,22.0,-100.00,WSW,244,13.0,25.0,20,0.00,,,0.00,6.000000,,2013-05-19 03:53:00,
2013-05-18 21:02:00,64.0,22.0,-100.00,WSW,244,13.0,25.0,20,0.00,,,0.00,6.000000,,2013-05-19 04:02:00,
2013-05-18 21:12:00,64.0,22.0,-100.00,WSW,244,13.0,25.0,20,0.00,,,0.00,6.000000,,2013-05-19 04:12:00,
2013-05-18 21:23:00,64.0,22.0,-100.00,WSW,244,13.0,25.0,20,0.00,,,0.00,6.000000,,2013-05-19 04:23:00,
2013-05-18 21:53:00,62.0,22.0,-100.00,WSW,258,10.0,18.0,21,0.00,,,0.00,0.000000,,2013-05-19 04:53:00,
2013-05-18 22:02:00,62.0,22.0,-100.00,WSW,258,10.0,18.0,21,0.00,,,0.00,0.000000,,2013-05-19 05:02:00,
2013-05-18 22:12:00,62.0,22.0,-100.00,WSW,258,10.0,18.0,21,0.00,,,0.00,0.000000,,2013-05-19 05:12:00,
2013-05-18 22:21:00,62.0,22.0,-100.00,WSW,258,10.0,18.0,21,0.00,,,0.00,0.000000,,2013-05-19 05:21:00,
2013-05-18 22:52:00,63.0,24.0,-100.00,SW,231,9.0,19.0,22,0.00,,,0.00,0.000000,,2013-05-19 05:52:00,
2013-05-18 23:02:00,63.0,24.0,-100.00,SW,231,9.0,19.0,22,0.00,,,0.00,0.000000,,2013-05-19 06:02:00,
2013-05-18 23:12:00,63.0,24.0,-100.00,SW,231,9.0,19.0,22,0.00,,,0.00,0.000000,,2013-05-19 06:12:00,
2013-05-18 23:21:00,63.0,24.0,-100.00,SW,231,9.0,19.0,22,0.00,,,0.00,0.000000,,2013-05-19 06:21:00,
2013-05-18 23:52:00,63.0,25.0,-100.00,NNW,332,9.0,18.0,23,0.00,,,0.00,0.000000,,2013-05-19 06:52:00,